Time;durP1;ratioP1;P1;durP2;ratioP2;P2;SDS_P1;SDS_P2;PMS_P1;PMS_P2;Temp;Humidity;BMP_temperature;BMP_pressure;BME280_temperature;BME280_humidity;BME280_pressure;Samples;Min_cycle;Max_cycle;Signal;HPM_P1;HPM_P2
2022/01/24 00:01:55;;;;;;;17.48;6.18;;;;;;;-6.82;84.97;100323.28;4484982;31;20131;-72
2022/01/24 00:04:23;;;;;;;13.82;6.53;;;;;;;-6.86;85.09;100327.47;4485148;31;20167;-72
2022/01/24 00:06:51;;;;;;;16.65;5.60;;;;;;;-6.85;84.50;100324.09;4484916;31;20089;-72
2022/01/24 00:09:18;;;;;;;21.70;6.60;;;;;;;-6.94;84.41;100331.69;4484790;31;20088;-72
2022/01/24 00:14:49;;;;;;;16.15;6.62;;;;;;;-7.15;86.62;100337.47;4484854;31;20148;-72
2022/01/24 00:17:18;;;;;;;13.43;6.37;;;;;;;-7.23;87.30;100345.03;4484401;32;20473;-72
2022/01/24 00:28:02;;;;;;;17.95;7.43;;;;;;;-7.24;87.79;100352.66;4484512;32;20187;-72
2022/01/24 00:30:30;;;;;;;20.02;7.82;;;;;;;-7.01;87.08;100353.72;4484739;31;20088;-72
2022/01/24 00:32:57;;;;;;;18.92;6.75;;;;;;;-6.89;86.33;100352.09;4484590;31;20117;-72
2022/01/24 00:35:25;;;;;;;15.07;6.18;;;;;;;-6.90;86.11;100352.94;4484530;31;20076;-72
2022/01/24 00:37:52;;;;;;;15.95;7.10;;;;;;;-6.88;86.02;100364.00;4484618;31;20100;-72
2022/01/24 00:40:19;;;;;;;17.90;6.95;;;;;;;-7.06;86.35;100355.37;4484658;31;20111;-72
2022/01/24 00:42:54;;;;;;;17.00;7.03;;;;;;;-7.14;87.01;100359.56;4484883;32;20096;-72
2022/01/24 00:45:37;;;;;;;21.45;7.00;;;;;;;-7.26;87.30;100360.31;4484743;31;20080;-72
2022/01/24 00:53:38;;;;;;;17.12;6.75;;;;;;;-7.59;88.23;100369.31;4484371;31;20163;-72
2022/01/24 00:56:06;;;;;;;13.55;5.95;;;;;;;-7.59;88.50;100365.91;4484415;31;20100;-72
2022/01/24 00:58:34;;;;;;;16.67;6.35;;;;;;;-7.63;89.15;100361.63;4484313;31;20136;-72
2022/01/24 01:01:01;;;;;;;14.35;6.75;;;;;;;-7.62;89.04;100370.97;4484276;31;20623;-72
2022/01/24 01:03:28;;;;;;;15.85;7.05;;;;;;;-7.33;88.41;100363.63;4483053;32;20614;-72
2022/01/24 01:06:05;;;;;;;17.00;6.75;;;;;;;-7.34;87.70;100360.22;4484096;32;20182;-72
2022/01/24 01:19:51;;;;;;;13.38;5.87;;;;;;;-7.78;89.29;100344.50;4481726;32;20451;-72
2022/01/24 01:22:18;;;;;;;15.32;7.07;;;;;;;-7.63;89.02;100344.69;4481819;32;20147;-72
2022/01/24 01:24:51;;;;;;;13.55;6.12;;;;;;;-7.58;88.93;100354.91;4481193;32;20100;-72
2022/01/24 01:27:24;;;;;;;15.80;6.57;;;;;;;-7.57;88.70;100359.13;4481446;32;20450;-72
2022/01/24 01:29:58;;;;;;;16.23;5.57;;;;;;;-7.59;88.07;100348.09;4482638;32;20466;-72
2022/01/24 01:54:04;;;;;;;13.45;5.62;;;;;;;-7.58;86.72;100345.56;4470486;32;20502;-72
2022/01/24 01:56:32;;;;;;;11.73;5.05;;;;;;;-7.55;86.61;100348.16;4466550;32;113236;-72
2022/01/24 01:58:59;;;;;;;12.75;5.28;;;;;;;-7.49;86.17;100347.38;4470511;32;20538;-72
2022/01/24 02:01:26;;;;;;;12.82;5.43;;;;;;;-7.50;86.20;100346.50;4470093;32;20120;-72
2022/01/24 02:03:56;;;;;;;13.20;4.78;;;;;;;-7.51;86.20;100357.53;4470220;32;20108;-72
2022/01/24 02:06:24;;;;;;;14.43;5.95;;;;;;;-7.59;86.38;100353.19;4470211;32;20190;-72
2022/01/24 02:09:04;;;;;;;17.15;6.22;;;;;;;-7.60;86.82;100356.56;4470154;32;20092;-72
2022/01/24 02:11:32;;;;;;;12.55;5.18;;;;;;;-7.46;86.46;100355.03;4470135;32;20173;-72
2022/01/24 02:14:04;;;;;;;14.35;5.47;;;;;;;-7.49;86.15;100347.38;4470114;32;20089;-72
2022/01/24 02:19:21;;;;;;;11.77;4.75;;;;;;;-7.68;86.53;100366.66;4470063;32;20119;-72
2022/01/24 02:24:30;;;;;;;17.20;5.85;;;;;;;-7.99;86.45;100375.63;4469852;32;20158;-72
2022/01/24 02:26:59;;;;;;;12.27;5.72;;;;;;;-8.23;87.47;100370.25;4469821;32;20139;-72
2022/01/24 02:29:44;;;;;;;11.07;4.85;;;;;;;-8.21;88.63;100383.00;4469728;32;20092;-72
2022/01/24 02:32:12;;;;;;;16.23;6.10;;;;;;;-8.05;88.58;100367.09;4470149;32;20089;-72
2022/01/24 02:34:47;;;;;;;17.23;6.28;;;;;;;-8.21;88.27;100367.75;4483695;32;20122;-72
2022/01/24 02:37:17;;;;;;;13.77;6.78;;;;;;;-8.13;88.56;100368.72;4485509;32;20489;-72
2022/01/24 02:39:54;;;;;;;13.98;5.78;;;;;;;-8.09;87.99;100375.53;4485537;31;20136;-72
2022/01/24 02:53:14;;;;;;;9.27;4.87;;;;;;;-8.44;90.25;100378.50;4485611;31;20199;-72
2022/01/24 02:55:42;;;;;;;10.35;4.78;;;;;;;-8.30;90.26;100372.72;4485508;31;20110;-72
2022/01/24 02:58:10;;;;;;;11.98;4.68;;;;;;;-8.21;89.34;100376.22;4485506;31;20139;-72
2022/01/24 03:00:38;;;;;;;13.68;5.20;;;;;;;-8.09;88.50;100374.69;4485268;31;20080;-72
2022/01/24 03:03:06;;;;;;;15.50;4.22;;;;;;;-8.07;88.54;100376.41;4484333;32;20092;-72
2022/01/24 03:05:34;;;;;;;13.52;5.25;;;;;;;-7.99;88.57;100368.00;4485391;31;20442;-72
2022/01/24 03:08:02;;;;;;;14.20;4.40;;;;;;;-7.97;88.16;100368.91;4485559;31;20084;-72
2022/01/24 03:10:37;;;;;;;10.43;5.07;;;;;;;-7.91;88.05;100374.06;4485519;31;20076;-72
2022/01/24 03:13:31;;;;;;;13.00;5.28;;;;;;;-7.84;87.44;100363.13;4485521;31;20108;-72
2022/01/24 03:15:59;;;;;;;12.37;4.72;;;;;;;-7.92;88.03;100373.19;4485217;31;20088;-72
2022/01/24 03:18:27;;;;;;;11.73;4.97;;;;;;;-8.05;88.36;100382.38;4485595;31;20132;-72
2022/01/24 03:20:55;;;;;;;10.50;4.68;;;;;;;-8.18;88.51;100379.66;4485432;31;20481;-72
2022/01/24 03:23:23;;;;;;;15.82;4.90;;;;;;;-8.26;88.93;100384.62;4485421;31;20472;-72
2022/01/24 03:25:51;;;;;;;12.27;5.12;;;;;;;-8.29;89.41;100387.13;4485051;31;20147;-72
2022/01/24 03:28:22;;;;;;;13.55;4.90;;;;;;;-8.29;89.24;100387.13;4485121;31;20088;-72
2022/01/24 03:30:49;;;;;;;12.27;4.82;;;;;;;-8.38;89.78;100391.25;4485249;31;20485;-72
2022/01/24 03:33:17;;;;;;;12.77;5.03;;;;;;;-8.31;89.40;100397.28;4485235;31;20100;-72
2022/01/24 03:35:44;;;;;;;10.93;4.80;;;;;;;-8.24;89.56;100399.06;4485170;31;20096;-72
2022/01/24 03:38:12;;;;;;;11.95;5.07;;;;;;;-8.11;89.10;100395.00;4485162;31;20088;-72
2022/01/24 03:40:40;;;;;;;12.48;4.93;;;;;;;-7.95;88.42;100397.72;4485147;32;20088;-72
2022/01/24 03:43:07;;;;;;;12.20;4.40;;;;;;;-7.82;87.83;100402.13;4485187;31;20120;-72
2022/01/24 03:45:41;;;;;;;10.80;5.53;;;;;;;-7.81;87.60;100395.34;4485365;31;20096;-72
2022/01/24 03:48:22;;;;;;;12.52;4.68;;;;;;;-7.78;87.49;100400.47;4485079;32;20089;-72
2022/01/24 03:50:50;;;;;;;11.48;4.25;;;;;;;-7.82;87.83;100389.41;4485150;31;20102;-72
2022/01/24 03:53:18;;;;;;;9.38;4.37;;;;;;;-7.80;87.78;100397.91;4484241;31;20515;-72
2022/01/24 03:55:45;;;;;;;8.80;4.45;;;;;;;-7.88;88.08;100400.38;4485061;31;20115;-72
2022/01/24 03:58:12;;;;;;;13.10;5.62;;;;;;;-7.92;88.45;100395.22;4484783;31;20111;-72
2022/01/24 04:00:41;;;;;;;10.35;5.05;;;;;;;-7.88;88.87;100396.97;4484953;31;20096;-72
2022/01/24 04:03:09;;;;;;;11.77;5.85;;;;;;;-7.83;88.54;100392.78;4485443;31;20442;-72
2022/01/24 04:05:36;;;;;;;13.38;5.32;;;;;;;-7.76;88.08;100394.56;4484947;31;20652;-72
2022/01/24 04:08:03;;;;;;;15.02;5.12;;;;;;;-7.71;88.10;100390.38;4484950;31;20092;-72
2022/01/24 04:10:39;;;;;;;12.25;4.68;;;;;;;-7.53;87.71;100393.97;4484869;31;20084;-72
2022/01/24 04:13:21;;;;;;;10.48;4.80;;;;;;;-7.49;86.96;100391.47;4485013;32;20099;-72
2022/01/24 04:16:12;;;;;;;15.25;5.93;;;;;;;-7.47;86.69;100396.59;4484902;31;20156;-72
2022/01/24 04:24:11;;;;;;;11.27;5.40;;;;;;;-7.57;87.26;100412.59;4484851;31;20093;-72
2022/01/24 04:26:58;;;;;;;14.05;4.72;;;;;;;-7.50;87.21;100416.91;4484797;31;20155;-72
2022/01/24 04:29:25;;;;;;;9.48;3.70;;;;;;;-7.79;88.12;100404.72;4484626;31;20119;-72
2022/01/24 04:31:52;;;;;;;15.52;6.78;;;;;;;-7.82;88.73;100419.09;4484885;31;20088;-72
2022/01/24 04:34:20;;;;;;;16.58;5.82;;;;;;;-7.83;88.59;100419.94;4484513;31;20435;-72
2022/01/24 04:36:47;;;;;;;16.50;6.32;;;;;;;-7.86;89.08;100421.59;4484771;31;20127;-72
2022/01/24 04:39:14;;;;;;;19.12;7.80;;;;;;;-7.85;90.06;100428.38;4484667;31;20101;-72
2022/01/24 04:41:46;;;;;;;18.08;6.85;;;;;;;-7.93;88.97;100426.56;4484642;31;20424;-72
2022/01/24 04:44:32;;;;;;;19.90;7.30;;;;;;;-8.15;88.75;100422.91;4484542;31;20115;-72
2022/01/24 04:53:02;;;;;;;16.17;6.78;;;;;;;-8.18;88.57;100433.03;4481844;32;20143;-72
2022/01/24 04:55:29;;;;;;;17.30;6.47;;;;;;;-8.25;89.14;100432.09;4482061;32;20109;-72
2022/01/24 04:57:57;;;;;;;19.37;7.72;;;;;;;-8.28;89.50;100442.22;4481537;32;20144;-72
2022/01/24 05:00:24;;;;;;;22.27;7.10;;;;;;;-8.34;89.82;100434.50;4481967;32;20163;-72
2022/01/24 05:02:51;;;;;;;16.35;5.93;;;;;;;-8.32;90.62;100441.31;4482301;32;20891;-72
2022/01/24 05:05:21;;;;;;;16.55;7.10;;;;;;;-8.48;91.34;100442.78;4481193;32;20131;-72
2022/01/24 05:07:51;;;;;;;25.40;7.78;;;;;;;-8.52;92.40;100452.88;4478258;32;20216;-72
2022/01/24 05:10:35;;;;;;;22.83;8.00;;;;;;;-8.40;92.02;100461.53;4472419;32;20127;-72
2022/01/24 05:23:51;;;;;;;28.60;7.35;;;;;;;-8.76;91.88;100459.31;4472954;32;20076;-72
2022/01/24 05:26:18;;;;;;;15.93;6.47;;;;;;;-8.49;91.08;100463.97;4480901;32;20151;-72
2022/01/24 05:28:45;;;;;;;21.25;6.45;;;;;;;-8.35;90.05;100465.84;4477622;32;20529;-72
2022/01/24 05:31:13;;;;;;;15.65;5.68;;;;;;;-8.18;89.57;100459.31;4485856;31;20550;-73
2022/01/24 05:33:40;;;;;;;17.85;6.22;;;;;;;-8.18;89.27;100466.94;4478881;31;20096;-72
2022/01/24 05:36:07;;;;;;;13.57;6.18;;;;;;;-8.21;88.88;100466.88;4478965;31;20131;-73
2022/01/24 05:38:35;;;;;;;13.80;5.93;;;;;;;-8.24;89.21;100477.84;4485556;31;20104;-72
2022/01/24 05:41:02;;;;;;;13.88;5.50;;;;;;;-8.25;89.00;100475.28;4481867;31;20100;-72
2022/01/24 05:43:29;;;;;;;11.12;4.65;;;;;;;-8.31;89.13;100476.09;4480550;32;20499;-72
2022/01/24 05:45:57;;;;;;;15.43;5.68;;;;;;;-8.26;88.48;100476.16;4482778;31;20132;-73
2022/01/24 05:48:24;;;;;;;12.63;5.03;;;;;;;-8.28;87.88;100477.78;4485346;31;20134;-72
2022/01/24 05:50:51;;;;;;;13.60;5.68;;;;;;;-8.26;87.06;100482.06;4484617;32;20156;-73
2022/01/24 05:53:18;;;;;;;10.38;4.75;;;;;;;-8.25;86.59;100485.47;4484602;31;20085;-72
2022/01/24 05:55:45;;;;;;;12.75;5.15;;;;;;;-8.35;86.33;100483.63;4485100;31;20525;-73
2022/01/24 05:58:13;;;;;;;13.70;5.87;;;;;;;-8.41;86.52;100497.09;4485498;31;20155;-72
2022/01/24 06:00:40;;;;;;;17.02;6.43;;;;;;;-8.32;86.05;100493.84;4482360;31;20104;-72
2022/01/24 06:03:07;;;;;;;13.73;5.68;;;;;;;-8.36;85.27;100499.72;4484322;31;20482;-72
2022/01/24 06:05:35;;;;;;;13.07;5.32;;;;;;;-8.53;85.26;100496.94;4485202;31;20089;-73
2022/01/24 06:08:02;;;;;;;14.82;5.45;;;;;;;-8.44;85.25;100492.84;4485796;31;20127;-72
2022/01/24 06:10:29;;;;;;;9.63;5.00;;;;;;;-8.36;84.54;100494.63;4484096;31;20112;-72
2022/01/24 06:12:57;;;;;;;11.52;4.50;;;;;;;-8.26;83.86;100489.69;4485750;31;20145;-72
2022/01/24 06:15:24;;;;;;;11.65;4.20;;;;;;;-8.25;82.99;100495.63;4483192;31;20127;-72
2022/01/24 06:17:51;;;;;;;13.00;4.72;;;;;;;-8.19;82.64;100498.25;4483111;31;20164;-72
2022/01/24 06:20:18;;;;;;;14.38;5.45;;;;;;;-8.18;82.67;100494.06;4481129;31;20112;-72
2022/01/24 06:22:45;;;;;;;14.98;5.85;;;;;;;-8.23;82.71;100502.47;4479575;31;20416;-72
2022/01/24 06:25:18;;;;;;;11.27;5.95;;;;;;;-8.24;82.75;100504.97;4483498;31;20126;-72
2022/01/24 06:27:45;;;;;;;12.32;4.82;;;;;;;-8.27;82.84;100510.03;4483192;31;20123;-73
2022/01/24 06:30:12;;;;;;;11.63;5.85;;;;;;;-8.40;82.75;100514.91;4482771;32;20096;-73
2022/01/24 06:32:40;;;;;;;13.32;5.03;;;;;;;-8.53;83.31;100513.03;4484279;31;20551;-73
2022/01/24 06:35:09;;;;;;;11.60;4.22;;;;;;;-8.55;83.61;100524.87;4478267;31;20100;-73
2022/01/24 06:37:37;;;;;;;13.48;5.85;;;;;;;-8.56;84.14;100520.59;4482990;32;20151;-72
2022/01/24 06:40:06;;;;;;;10.13;4.37;;;;;;;-8.53;83.64;100528.28;4484602;31;20107;-73
2022/01/24 06:42:34;;;;;;;10.50;5.47;;;;;;;-8.55;83.58;100524.87;4484318;31;20111;-73
2022/01/24 06:45:01;;;;;;;12.55;5.30;;;;;;;-8.56;84.04;100528.22;4484591;31;20127;-73
2022/01/24 06:47:29;;;;;;;15.60;6.30;;;;;;;-8.43;84.03;100530.12;4479537;32;20104;-73
2022/01/24 06:49:56;;;;;;;15.02;6.03;;;;;;;-8.38;83.15;100541.19;4485030;31;20377;-72
2022/01/24 06:52:23;;;;;;;17.02;7.55;;;;;;;-8.28;83.74;100534.59;4490948;31;20100;-72
2022/01/24 06:54:50;;;;;;;22.45;8.82;;;;;;;-8.13;83.37;100544.16;4484353;31;20575;-72
2022/01/24 06:57:17;;;;;;;12.82;6.12;;;;;;;-8.06;83.59;100551.03;4486712;31;20100;-72
2022/01/24 06:59:45;;;;;;;12.82;5.32;;;;;;;-7.97;83.64;100550.31;4490957;31;20541;-73
2022/01/24 07:02:14;;;;;;;13.82;5.68;;;;;;;-7.76;83.49;100552.31;4485260;31;20566;-73
2022/01/24 07:04:42;;;;;;;12.18;5.65;;;;;;;-7.64;82.73;100554.19;4472189;31;20104;-73
2022/01/24 07:07:11;;;;;;;10.68;5.53;;;;;;;-7.62;82.23;100560.13;4484937;31;20490;-72
2022/01/24 07:09:39;;;;;;;14.23;6.03;;;;;;;-7.38;81.59;100561.31;4483571;31;20109;-72
2022/01/24 07:12:08;;;;;;;14.02;6.68;;;;;;;-7.22;81.21;100562.34;4475555;32;20466;-73
2022/01/24 07:14:35;;;;;;;13.38;6.18;;;;;;;-7.05;80.96;100565.94;4478930;31;20113;-72
2022/01/24 07:17:31;;;;;;;13.45;6.50;;;;;;;-6.92;80.62;100566.91;4482841;31;20484;-71
2022/01/24 07:19:58;;;;;;;16.58;5.90;;;;;;;-6.79;80.20;100578.12;4473146;32;20097;-73
2022/01/24 07:22:25;;;;;;;12.95;5.75;;;;;;;-6.65;79.76;100571.44;4480428;32;20165;-72
2022/01/24 07:24:52;;;;;;;9.77;5.20;;;;;;;-6.51;79.79;100571.63;4479967;31;20122;-72
2022/01/24 07:27:20;;;;;;;18.80;6.70;;;;;;;-6.20;78.39;100571.03;4480131;32;20144;-73
2022/01/24 07:29:47;;;;;;;14.93;7.00;;;;;;;-6.15;77.59;100575.31;4484167;31;20156;-74
2022/01/24 07:32:14;;;;;;;11.35;5.62;;;;;;;-6.03;77.40;100586.47;4479517;31;20097;-75
2022/01/24 07:34:41;;;;;;;14.05;5.93;;;;;;;-5.80;76.65;100584.88;4479804;32;20150;-74
2022/01/24 07:37:09;;;;;;;13.95;5.50;;;;;;;-5.58;75.90;100590.16;4473916;32;20626;-74
2022/01/24 07:39:36;;;;;;;9.75;4.85;;;;;;;-5.35;74.98;100593.66;4478291;32;20092;-74
2022/01/24 07:42:15;;;;;;;13.30;6.18;;;;;;;-5.22;74.65;100603.97;4474927;31;20108;-73
2022/01/24 07:44:44;;;;;;;14.35;5.70;;;;;;;-5.08;74.74;100602.31;4480796;32;20180;-74
2022/01/24 07:47:11;;;;;;;8.95;4.45;;;;;;;-4.98;74.36;100613.44;4472833;32;20155;-73
2022/01/24 07:49:39;;;;;;;10.82;5.25;;;;;;;-4.77;73.61;100607.53;4470652;32;20100;-73
2022/01/24 07:52:06;;;;;;;14.38;6.00;;;;;;;-4.59;72.69;100616.97;4474316;31;20179;-72
2022/01/24 07:54:33;;;;;;;12.18;5.18;;;;;;;-4.56;72.74;100624.63;4481279;31;20101;-73
2022/01/24 07:57:00;;;;;;;13.65;5.87;;;;;;;-4.35;72.25;100621.28;4473793;32;20458;-73
2022/01/24 07:59:28;;;;;;;13.00;6.12;;;;;;;-4.20;71.20;100619.59;4491617;31;20096;-73
2022/01/24 08:01:55;;;;;;;12.27;5.53;;;;;;;-4.03;70.77;100617.88;4480928;31;20127;-73
2022/01/24 08:04:22;;;;;;;7.97;4.70;;;;;;;-3.94;69.86;100617.03;4479892;31;20096;-73
2022/01/24 08:06:49;;;;;;;9.25;4.28;;;;;;;-3.85;68.96;100617.03;4476623;31;20104;-73
2022/01/24 08:09:16;;;;;;;12.48;5.25;;;;;;;-3.73;67.73;100620.47;4485288;31;20104;-74
2022/01/24 08:11:44;;;;;;;10.00;5.47;;;;;;;-3.62;68.04;100624.72;4473927;31;20481;-74
2022/01/24 08:14:11;;;;;;;9.23;4.72;;;;;;;-3.50;66.53;100628.13;4469390;32;20437;-74
2022/01/24 08:16:40;;;;;;;11.48;5.40;;;;;;;-3.39;66.68;100626.41;4473429;31;20092;-74
2022/01/24 08:19:07;;;;;;;13.65;5.40;;;;;;;-3.32;65.54;100633.19;4480749;31;20100;-74
2022/01/24 08:21:34;;;;;;;14.52;5.35;;;;;;;-3.15;64.59;100627.19;4480329;31;20146;-73
2022/01/24 08:24:02;;;;;;;8.77;4.05;;;;;;;-3.12;65.64;100630.59;4480987;32;20147;-73
2022/01/24 08:26:29;;;;;;;11.70;4.72;;;;;;;-3.11;65.66;100626.31;4483584;31;20521;-73
2022/01/24 08:28:57;;;;;;;10.75;5.22;;;;;;;-3.05;64.38;100631.41;4476075;31;20160;-73
2022/01/24 08:31:24;;;;;;;13.38;5.80;;;;;;;-2.93;64.39;100625.41;4471774;31;20114;-73
2022/01/24 08:33:51;;;;;;;10.60;4.97;;;;;;;-2.88;64.41;100628.78;4479439;31;20096;-73
2022/01/24 08:36:19;;;;;;;10.02;5.12;;;;;;;-3.10;65.54;100644.25;4478101;31;20156;-73
2022/01/24 08:38:49;;;;;;;8.63;4.57;;;;;;;-3.19;65.03;100646.84;4473248;31;20118;-74
2022/01/24 08:41:30;;;;;;;12.52;4.90;;;;;;;-3.28;64.93;100645.16;4470959;31;20092;-73
2022/01/24 08:44:10;;;;;;;9.60;4.62;;;;;;;-3.23;63.88;100642.56;4481044;31;20423;-73
2022/01/24 08:46:41;;;;;;;12.77;4.93;;;;;;;-3.21;63.85;100651.97;4480759;32;20205;-73
2022/01/24 08:49:08;;;;;;;13.00;5.47;;;;;;;-3.10;63.86;100648.53;4482969;31;20803;-73
2022/01/24 08:51:35;;;;;;;12.15;4.78;;;;;;;-3.30;62.78;100652.00;4485490;31;20100;-74
2022/01/24 08:54:17;;;;;;;9.88;4.75;;;;;;;-3.07;62.95;100649.38;4483708;31;20434;-73
2022/01/24 08:56:45;;;;;;;9.43;4.50;;;;;;;-2.87;63.09;100654.41;4481979;31;20096;-72
2022/01/24 08:59:13;;;;;;;11.15;4.35;;;;;;;-2.99;60.92;100658.75;4482769;31;20536;-73
2022/01/24 09:01:40;;;;;;;8.77;3.90;;;;;;;-2.96;61.94;100656.19;4480517;31;20100;-74
2022/01/24 09:04:08;;;;;;;10.60;3.95;;;;;;;-3.01;59.48;100653.63;4479774;31;20821;-75
2022/01/24 09:06:35;;;;;;;7.50;3.25;;;;;;;-2.70;59.83;100649.22;4478572;31;20147;-74
2022/01/24 09:09:04;;;;;;;8.73;3.90;;;;;;;-2.82;57.94;100656.97;4475226;32;20100;-74
2022/01/24 09:11:34;;;;;;;8.88;3.15;;;;;;;-2.87;58.97;100653.59;4473136;31;20193;-74
2022/01/24 09:14:03;;;;;;;10.65;3.50;;;;;;;-2.68;58.51;100655.22;4477949;32;20109;-72
2022/01/24 09:16:30;;;;;;;8.90;4.03;;;;;;;-2.53;57.52;100653.41;4483633;31;20146;-73
2022/01/24 09:18:58;;;;;;;7.82;3.03;;;;;;;-2.70;56.89;100659.47;4481428;32;20092;-73
2022/01/24 09:21:27;;;;;;;10.77;3.75;;;;;;;-2.47;57.08;100663.66;4482710;31;20119;-73
2022/01/24 09:23:55;;;;;;;8.82;3.15;;;;;;;-2.50;58.08;100667.09;4477378;32;20116;-74
2022/01/24 09:26:22;;;;;;;7.62;3.25;;;;;;;-2.45;58.11;100663.63;4478977;31;20080;-74
2022/01/24 09:28:49;;;;;;;9.27;3.67;;;;;;;-2.42;56.86;100667.06;4471700;32;20145;-74
2022/01/24 09:31:17;;;;;;;10.80;3.75;;;;;;;-2.37;57.96;100664.47;4482799;31;20092;-73
2022/01/24 09:33:45;;;;;;;6.85;3.35;;;;;;;-2.07;57.28;100660.00;4475716;31;20153;-74
2022/01/24 09:36:13;;;;;;;8.98;3.75;;;;;;;-2.00;58.86;100672.81;4476399;31;20108;-74
2022/01/24 09:38:41;;;;;;;8.90;3.97;;;;;;;-1.92;55.85;100674.44;4473477;31;20100;-73
2022/01/24 09:41:10;;;;;;;18.42;4.40;;;;;;;-1.80;55.14;100669.22;4468304;32;20517;-72
2022/01/24 09:43:37;;;;;;;8.30;3.15;;;;;;;-1.93;54.91;100663.31;4470534;32;20097;-72
2022/01/24 09:46:05;;;;;;;10.38;3.87;;;;;;;-1.99;54.00;100664.22;4475837;31;20485;-73
2022/01/24 09:48:32;;;;;;;12.98;4.60;;;;;;;-1.92;54.24;100659.03;4498099;31;20084;-74
2022/01/24 09:51:00;;;;;;;13.15;3.50;;;;;;;-2.13;53.42;100650.63;4481793;31;20108;-73
2022/01/24 09:53:30;;;;;;;10.95;3.50;;;;;;;-1.93;54.44;100657.34;4481124;31;20157;-73
2022/01/24 09:56:02;;;;;;;7.65;3.10;;;;;;;-1.99;53.64;100661.66;4478088;31;20492;-74
2022/01/24 09:58:31;;;;;;;6.37;2.87;;;;;;;-1.92;53.39;100652.19;4479511;31;20134;-72
2022/01/24 10:01:01;;;;;;;11.23;3.67;;;;;;;-1.82;53.48;100643.56;4487056;31;20137;-74
2022/01/24 10:03:28;;;;;;;8.32;3.62;;;;;;;-1.77;51.80;100658.94;4491016;31;20652;-75
2022/01/24 10:06:09;;;;;;;6.07;3.00;;;;;;;-1.70;52.94;100655.41;4477027;32;20149;-75
2022/01/24 10:08:37;;;;;;;7.28;3.17;;;;;;;-1.90;53.08;100655.59;4482269;31;20554;-73
2022/01/24 10:11:06;;;;;;;7.93;3.65;;;;;;;-1.70;52.85;100649.44;4482304;31;20401;-75
2022/01/24 10:16:29;;;;;;;8.82;3.25;;;;;;;-1.68;52.81;100650.28;4480415;31;20112;-74
2022/01/24 10:18:59;;;;;;;11.52;4.75;;;;;;;-1.45;52.28;100648.34;4480531;31;20165;-73
2022/01/24 10:21:54;;;;;;;7.80;4.18;;;;;;;-1.41;52.71;100644.03;4491218;31;20122;-73
2022/01/24 10:24:34;;;;;;;9.27;4.60;;;;;;;-1.45;54.06;100650.09;4485610;31;20153;-74
2022/01/24 10:27:23;;;;;;;10.85;3.85;;;;;;;-1.23;53.69;100649.88;4480720;31;20167;-75
2022/01/24 10:30:10;;;;;;;10.95;4.22;;;;;;;-1.22;53.17;100649.00;4492105;31;20092;-74
2022/01/24 10:32:43;;;;;;;7.22;3.53;;;;;;;-1.21;51.17;100645.53;4481723;32;20471;-73
2022/01/24 10:35:23;;;;;;;10.63;4.30;;;;;;;-1.02;49.96;100641.91;4487044;31;20135;-75
2022/01/24 10:37:54;;;;;;;11.60;4.32;;;;;;;-0.98;52.20;100645.31;4482393;32;20100;-76
2022/01/24 10:40:34;;;;;;;11.02;3.85;;;;;;;-0.82;53.29;100645.97;4488611;31;20121;-75
2022/01/24 10:43:24;;;;;;;9.18;4.30;;;;;;;-0.71;50.50;100651.84;4469286;32;20101;-76
2022/01/24 10:45:54;;;;;;;9.60;4.18;;;;;;;-0.51;49.54;100650.75;4477792;32;20176;-73
2022/01/24 10:48:43;;;;;;;11.95;4.47;;;;;;;-0.63;49.39;100649.19;4473832;32;20104;-72
2022/01/24 10:51:19;;;;;;;11.38;4.45;;;;;;;-0.59;49.07;100643.09;4481823;31;20492;-72
2022/01/24 10:53:52;;;;;;;10.57;4.10;;;;;;;-1.08;49.04;100636.84;4469704;32;20111;-72
2022/01/24 10:56:47;;;;;;;10.68;4.62;;;;;;;-0.77;49.11;100633.91;4475572;32;20100;-72
2022/01/24 10:59:24;;;;;;;7.50;4.37;;;;;;;-0.64;48.87;100630.28;4478613;31;20116;-72
2022/01/24 11:01:56;;;;;;;9.82;4.40;;;;;;;-0.48;48.90;100630.09;4484344;31;20458;-72
2022/01/24 11:04:26;;;;;;;11.25;4.30;;;;;;;-0.39;48.37;100628.25;4479156;32;20488;-72
2022/01/24 11:06:56;;;;;;;8.05;3.62;;;;;;;-0.47;47.39;100629.22;4483872;32;20104;-72
2022/01/24 11:09:27;;;;;;;8.57;4.40;;;;;;;-0.73;48.23;100638.13;4485171;32;20123;-72
2022/01/24 11:12:01;;;;;;;7.72;4.30;;;;;;;-0.46;48.44;100633.50;4484669;31;20160;-72
2022/01/24 11:14:31;;;;;;;15.07;8.43;;;;;;;-0.44;47.59;100622.31;4485317;32;20119;-72
2022/01/24 11:17:00;;;;;;;21.05;8.57;;;;;;;-0.49;52.01;100620.66;4485472;31;20171;-72
2022/01/24 11:19:42;;;;;;;15.60;7.87;;;;;;;-0.90;53.18;100634.03;4495068;31;20443;-72
2022/01/24 11:22:22;;;;;;;16.50;8.13;;;;;;;-0.78;53.76;100624.47;4496191;31;20084;-72
2022/01/24 11:25:01;;;;;;;17.40;7.40;;;;;;;-0.65;53.56;100636.31;4485058;31;20080;-72
2022/01/24 11:27:37;;;;;;;20.45;7.78;;;;;;;-0.62;53.52;100644.00;4485136;31;20115;-72
2022/01/24 11:30:11;;;;;;;16.85;8.25;;;;;;;-0.55;52.07;100642.19;4475875;31;20103;-72
2022/01/24 11:32:46;;;;;;;17.00;7.80;;;;;;;-0.36;52.03;100635.06;4475615;31;20093;-72
2022/01/24 11:35:13;;;;;;;17.33;7.80;;;;;;;-0.47;52.33;100632.66;4479704;32;20084;-72
2022/01/24 11:37:43;;;;;;;20.58;8.38;;;;;;;-0.59;51.83;100628.53;4479393;31;20100;-72
2022/01/24 11:40:23;;;;;;;14.70;7.43;;;;;;;-0.25;51.94;100628.03;4483546;32;20098;-72
2022/01/24 11:42:51;;;;;;;16.50;6.97;;;;;;;-0.24;52.33;100623.75;4469836;32;20112;-72
2022/01/24 11:45:45;;;;;;;17.42;7.43;;;;;;;-0.45;51.69;100620.59;4480280;32;20485;-72
2022/01/24 11:48:19;;;;;;;15.98;6.62;;;;;;;-0.61;51.68;100614.81;4477714;31;20164;-72
2022/01/24 11:51:03;;;;;;;14.27;7.15;;;;;;;-0.72;52.54;100616.69;4472471;32;20110;-72
2022/01/24 11:53:34;;;;;;;18.12;7.07;;;;;;;-0.93;52.64;100612.66;4483092;31;20097;-72
2022/01/24 11:56:27;;;;;;;14.13;5.68;;;;;;;-0.94;53.17;100606.66;4485062;31;20076;-72
2022/01/24 11:59:17;;;;;;;15.57;6.40;;;;;;;-0.80;52.75;100609.06;4472988;32;20093;-72
2022/01/24 12:01:46;;;;;;;14.05;6.43;;;;;;;-0.79;53.54;100607.31;4477225;32;20580;-72
2022/01/24 12:04:13;;;;;;;11.12;6.00;;;;;;;-0.77;53.84;100603.88;4484210;31;20153;-72
2022/01/24 12:07:20;;;;;;;13.82;6.30;;;;;;;-0.78;52.99;100599.59;4478988;32;20122;-72
2022/01/24 12:09:47;;;;;;;13.05;6.00;;;;;;;-0.75;52.97;100598.72;4480899;32;20464;-71
2022/01/24 12:12:42;;;;;;;11.35;5.37;;;;;;;-0.77;52.75;100597.88;4479963;32;20462;-72
2022/01/24 12:15:11;;;;;;;16.02;6.18;;;;;;;-0.76;52.78;100591.84;4483933;32;20191;-72
2022/01/24 12:17:49;;;;;;;20.05;6.97;;;;;;;-0.66;52.83;100596.00;4479346;31;20077;-72
2022/01/24 12:20:33;;;;;;;13.05;5.65;;;;;;;-0.66;52.98;100597.75;4483665;31;20100;-72
2022/01/24 12:23:21;;;;;;;8.85;4.60;;;;;;;-0.63;52.40;100595.97;4483676;32;20103;-72
2022/01/24 12:26:06;;;;;;;9.32;4.50;;;;;;;-0.74;52.31;100584.97;4473961;32;20108;-72
2022/01/24 12:28:43;;;;;;;12.57;4.75;;;;;;;-0.78;52.11;100601.31;4477082;32;20537;-72
2022/01/24 12:31:20;;;;;;;11.02;5.20;;;;;;;-0.84;52.95;100601.41;4483680;32;20165;-72
2022/01/24 12:33:53;;;;;;;14.63;5.25;;;;;;;-1.02;52.33;100595.59;4481127;31;20152;-72
2022/01/24 12:36:47;;;;;;;11.43;4.82;;;;;;;-0.87;52.70;100601.44;4484544;32;20084;-72
2022/01/24 12:39:37;;;;;;;27.87;11.93;;;;;;;-0.87;52.39;100602.28;4447264;32;20111;-72
2022/01/24 12:42:14;;;;;;;11.35;5.05;;;;;;;-0.87;52.37;100593.72;4404695;32;20669;-72
2022/01/24 12:47:16;;;;;;;8.90;4.70;;;;;;;-0.68;52.13;100594.31;4404327;32;20138;-72
2022/01/24 12:49:44;;;;;;;11.43;5.05;;;;;;;-0.74;51.75;100587.56;4403958;32;20354;-72
2022/01/24 12:52:18;;;;;;;13.88;5.70;;;;;;;-0.77;52.13;100579.87;4404214;32;20155;-72
2022/01/24 12:54:49;;;;;;;9.63;4.82;;;;;;;-0.67;52.01;100589.16;4403435;32;20136;-73
2022/01/24 12:57:19;;;;;;;13.45;5.55;;;;;;;-0.58;52.23;100594.16;4401191;32;20236;-72
2022/01/24 13:00:09;;;;;;;12.02;5.82;;;;;;;-0.67;52.23;100585.72;4400724;32;20109;-72
2022/01/24 13:02:39;;;;;;;9.25;4.95;;;;;;;-0.65;52.41;100581.41;4401581;32;20126;-72
2022/01/24 13:05:11;;;;;;;11.52;4.93;;;;;;;-0.60;52.55;100580.47;4400368;32;20129;-72
2022/01/24 13:07:40;;;;;;;13.43;4.97;;;;;;;-0.52;51.48;100585.50;4401022;32;20149;-72
2022/01/24 13:10:13;;;;;;;8.90;4.60;;;;;;;-0.57;51.52;100585.59;4402346;32;20094;-72
2022/01/24 13:12:42;;;;;;;9.60;4.77;;;;;;;-0.50;51.74;100581.22;4403453;32;20144;-72